sensor_id;sensor_type;location;lat;lon;timestamp;pressure;altitude;pressure_sealevel;temperature;humidity
63535;BME280;55128;50.230;18.944;2024-01-27T00:00:57;98819.50;;;5.08;82.31
63535;BME280;55128;50.230;18.944;2024-01-27T00:05:57;98834.13;;;5.23;81.75
63535;BME280;55128;50.230;18.944;2024-01-27T00:10:58;98847.06;;;5.34;81.06
63535;BME280;55128;50.230;18.944;2024-01-27T00:15:58;98852.66;;;5.17;80.04
63535;BME280;55128;50.230;18.944;2024-01-27T00:20:59;98860.63;;;5.14;79.16
63535;BME280;55128;50.230;18.944;2024-01-27T00:26:00;98866.81;;;5.11;78.14
63535;BME280;55128;50.230;18.944;2024-01-27T00:31:00;98871.13;;;5.15;77.61
63535;BME280;55128;50.230;18.944;2024-01-27T00:36:01;98883.22;;;5.24;76.14
63535;BME280;55128;50.230;18.944;2024-01-27T00:41:01;98883.44;;;5.13;75.39
63535;BME280;55128;50.230;18.944;2024-01-27T00:46:02;98903.03;;;4.97;73.94
63535;BME280;55128;50.230;18.944;2024-01-27T00:51:02;98904.66;;;5.04;74.49
63535;BME280;55128;50.230;18.944;2024-01-27T00:56:03;98923.97;;;5.03;74.38
63535;BME280;55128;50.230;18.944;2024-01-27T01:01:04;98932.44;;;5.20;74.22
63535;BME280;55128;50.230;18.944;2024-01-27T01:06:04;98945.56;;;5.22;74.64
63535;BME280;55128;50.230;18.944;2024-01-27T01:11:05;98931.63;;;5.17;76.00
63535;BME280;55128;50.230;18.944;2024-01-27T01:16:06;98948.31;;;5.14;75.79
63535;BME280;55128;50.230;18.944;2024-01-27T01:21:08;98953.69;;;5.08;74.72
63535;BME280;55128;50.230;18.944;2024-01-27T01:26:08;98963.25;;;5.14;74.79
63535;BME280;55128;50.230;18.944;2024-01-27T01:31:08;98961.69;;;5.03;73.60
63535;BME280;55128;50.230;18.944;2024-01-27T01:36:09;98964.41;;;4.97;72.18
63535;BME280;55128;50.230;18.944;2024-01-27T01:41:10;98973.88;;;5.09;72.21
63535;BME280;55128;50.230;18.944;2024-01-27T01:46:10;98975.53;;;5.15;72.35
63535;BME280;55128;50.230;18.944;2024-01-27T01:51:11;98974.84;;;5.03;72.52
63535;BME280;55128;50.230;18.944;2024-01-27T01:56:15;98977.66;;;4.93;73.06
63535;BME280;55128;50.230;18.944;2024-01-27T02:01:19;98970.34;;;5.09;72.37
63535;BME280;55128;50.230;18.944;2024-01-27T02:06:21;98974.00;;;5.01;72.82
63535;BME280;55128;50.230;18.944;2024-01-27T02:11:22;98971.41;;;4.98;72.32
63535;BME280;55128;50.230;18.944;2024-01-27T02:16:22;98976.69;;;4.97;72.79
63535;BME280;55128;50.230;18.944;2024-01-27T02:21:22;98964.66;;;4.85;72.96
63535;BME280;55128;50.230;18.944;2024-01-27T02:26:23;98969.09;;;4.81;73.06
63535;BME280;55128;50.230;18.944;2024-01-27T02:31:23;98967.53;;;4.70;73.24
63535;BME280;55128;50.230;18.944;2024-01-27T02:36:25;98976.25;;;4.72;73.64
63535;BME280;55128;50.230;18.944;2024-01-27T02:41:25;98960.53;;;4.67;73.59
63535;BME280;55128;50.230;18.944;2024-01-27T02:46:25;98977.09;;;4.75;73.52
63535;BME280;55128;50.230;18.944;2024-01-27T02:51:26;98979.63;;;4.80;73.52
63535;BME280;55128;50.230;18.944;2024-01-27T02:56:26;98987.50;;;4.81;72.55
63535;BME280;55128;50.230;18.944;2024-01-27T03:01:26;98985.66;;;4.86;72.20
63535;BME280;55128;50.230;18.944;2024-01-27T03:06:27;98997.22;;;4.76;71.89
63535;BME280;55128;50.230;18.944;2024-01-27T03:11:27;98995.56;;;4.71;71.47
63535;BME280;55128;50.230;18.944;2024-01-27T03:16:28;99019.09;;;4.78;71.49
63535;BME280;55128;50.230;18.944;2024-01-27T03:21:29;99022.19;;;4.49;74.72
63535;BME280;55128;50.230;18.944;2024-01-27T03:26:29;99038.34;;;4.21;77.43
63535;BME280;55128;50.230;18.944;2024-01-27T03:31:33;99033.97;;;4.22;77.64
63535;BME280;55128;50.230;18.944;2024-01-27T03:36:34;99043.38;;;4.37;77.42
63535;BME280;55128;50.230;18.944;2024-01-27T03:41:34;99046.06;;;4.34;76.62
63535;BME280;55128;50.230;18.944;2024-01-27T03:46:35;99039.91;;;4.35;75.90
63535;BME280;55128;50.230;18.944;2024-01-27T03:51:35;99043.38;;;4.37;75.45
63535;BME280;55128;50.230;18.944;2024-01-27T03:56:35;99039.09;;;4.31;74.60
63535;BME280;55128;50.230;18.944;2024-01-27T04:01:36;99046.97;;;4.31;74.40
63535;BME280;55128;50.230;18.944;2024-01-27T04:06:40;99054.84;;;4.33;73.56
63535;BME280;55128;50.230;18.944;2024-01-27T04:11:40;99074.09;;;4.33;73.58
63535;BME280;55128;50.230;18.944;2024-01-27T04:16:41;99067.00;;;4.40;73.26
63535;BME280;55128;50.230;18.944;2024-01-27T04:21:41;99079.19;;;4.47;72.64
63535;BME280;55128;50.230;18.944;2024-01-27T04:26:43;99069.66;;;4.37;72.54
63535;BME280;55128;50.230;18.944;2024-01-27T04:31:43;99071.41;;;4.39;72.24
63535;BME280;55128;50.230;18.944;2024-01-27T04:36:43;99075.78;;;4.39;71.93
63535;BME280;55128;50.230;18.944;2024-01-27T04:41:44;99092.47;;;4.35;71.66
63535;BME280;55128;50.230;18.944;2024-01-27T04:46:44;99095.00;;;4.41;71.04
63535;BME280;55128;50.230;18.944;2024-01-27T04:51:44;99111.78;;;4.32;71.29
63535;BME280;55128;50.230;18.944;2024-01-27T04:56:45;99109.94;;;4.40;70.46
63535;BME280;55128;50.230;18.944;2024-01-27T05:01:46;99119.41;;;4.52;69.84
63535;BME280;55128;50.230;18.944;2024-01-27T05:06:46;99107.28;;;4.40;69.22
63535;BME280;55128;50.230;18.944;2024-01-27T05:11:47;99107.31;;;4.39;69.61
63535;BME280;55128;50.230;18.944;2024-01-27T05:16:48;99110.88;;;4.36;69.18
63535;BME280;55128;50.230;18.944;2024-01-27T05:21:48;99113.53;;;4.32;69.48
63535;BME280;55128;50.230;18.944;2024-01-27T05:26:49;99118.78;;;4.32;69.29
63535;BME280;55128;50.230;18.944;2024-01-27T05:31:51;99114.53;;;4.24;68.72
63535;BME280;55128;50.230;18.944;2024-01-27T05:36:51;99113.63;;;4.25;68.53
63535;BME280;55128;50.230;18.944;2024-01-27T05:41:51;99124.19;;;4.22;68.29
63535;BME280;55128;50.230;18.944;2024-01-27T05:46:52;99122.31;;;4.31;68.40
63535;BME280;55128;50.230;18.944;2024-01-27T05:51:52;99127.66;;;4.24;68.31
63535;BME280;55128;50.230;18.944;2024-01-27T05:56:52;99123.31;;;4.20;68.32
63535;BME280;55128;50.230;18.944;2024-01-27T06:01:53;99129.28;;;4.33;68.15
63535;BME280;55128;50.230;18.944;2024-01-27T06:06:53;99137.16;;;4.36;67.43
63535;BME280;55128;50.230;18.944;2024-01-27T06:11:53;99123.16;;;4.33;67.72
63535;BME280;55128;50.230;18.944;2024-01-27T06:16:54;99144.31;;;4.23;67.50
63535;BME280;55128;50.230;18.944;2024-01-27T06:21:54;99151.38;;;4.18;67.56
63535;BME280;55128;50.230;18.944;2024-01-27T06:26:55;99167.88;;;4.29;66.96
63535;BME280;55128;50.230;18.944;2024-01-27T06:31:55;99174.91;;;4.26;66.50
63535;BME280;55128;50.230;18.944;2024-01-27T06:36:55;99160.81;;;4.33;65.59
63535;BME280;55128;50.230;18.944;2024-01-27T06:41:56;99173.94;;;4.35;65.76
63535;BME280;55128;50.230;18.944;2024-01-27T06:46:56;99159.09;;;4.34;65.41
63535;BME280;55128;50.230;18.944;2024-01-27T06:51:56;99150.41;;;4.25;66.27
63535;BME280;55128;50.230;18.944;2024-01-27T06:56:59;99149.44;;;4.33;65.86
63535;BME280;55128;50.230;18.944;2024-01-27T07:02:00;99167.91;;;4.28;65.93
63535;BME280;55128;50.230;18.944;2024-01-27T07:07:00;99174.06;;;4.25;66.18
63535;BME280;55128;50.230;18.944;2024-01-27T07:12:00;99175.66;;;4.37;65.57
63535;BME280;55128;50.230;18.944;2024-01-27T07:17:04;99190.53;;;4.41;65.07
63535;BME280;55128;50.230;18.944;2024-01-27T07:22:05;99186.13;;;4.45;64.44
63535;BME280;55128;50.230;18.944;2024-01-27T07:27:05;99200.13;;;4.44;64.85
63535;BME280;55128;50.230;18.944;2024-01-27T07:32:05;99186.13;;;4.42;64.27
63535;BME280;55128;50.230;18.944;2024-01-27T07:37:08;99171.13;;;4.50;64.10
63535;BME280;55128;50.230;18.944;2024-01-27T07:42:09;99187.94;;;4.38;64.45
63535;BME280;55128;50.230;18.944;2024-01-27T07:47:10;99194.88;;;4.44;64.01
63535;BME280;55128;50.230;18.944;2024-01-27T07:52:10;99177.34;;;4.43;63.82
63535;BME280;55128;50.230;18.944;2024-01-27T07:57:11;99169.34;;;4.52;63.71
63535;BME280;55128;50.230;18.944;2024-01-27T08:02:12;99190.16;;;4.71;63.25
63535;BME280;55128;50.230;18.944;2024-01-27T08:07:12;99207.72;;;4.68;62.91
63535;BME280;55128;50.230;18.944;2024-01-27T08:12:14;99200.94;;;4.51;62.37
63535;BME280;55128;50.230;18.944;2024-01-27T08:17:15;99193.22;;;4.35;63.12
63535;BME280;55128;50.230;18.944;2024-01-27T08:22:16;99198.38;;;4.43;63.40
63535;BME280;55128;50.230;18.944;2024-01-27T08:27:16;99194.78;;;4.53;63.13
63535;BME280;55128;50.230;18.944;2024-01-27T08:32:16;99193.06;;;4.49;63.06
63535;BME280;55128;50.230;18.944;2024-01-27T08:37:20;99216.50;;;4.67;62.81
63535;BME280;55128;50.230;18.944;2024-01-27T08:42:21;99194.97;;;4.38;64.98
63535;BME280;55128;50.230;18.944;2024-01-27T08:47:21;99197.72;;;4.24;66.67
63535;BME280;55128;50.230;18.944;2024-01-27T08:52:22;99203.06;;;4.16;68.28
63535;BME280;55128;50.230;18.944;2024-01-27T08:57:22;99205.75;;;4.10;69.88
63535;BME280;55128;50.230;18.944;2024-01-27T09:02:22;99212.00;;;4.00;71.91
63535;BME280;55128;50.230;18.944;2024-01-27T09:07:23;99223.38;;;3.99;72.86
63535;BME280;55128;50.230;18.944;2024-01-27T09:12:24;99238.22;;;4.07;73.51
63535;BME280;55128;50.230;18.944;2024-01-27T09:17:24;99238.28;;;3.98;74.28
63535;BME280;55128;50.230;18.944;2024-01-27T09:22:24;99234.91;;;3.82;75.49
63535;BME280;55128;50.230;18.944;2024-01-27T09:27:25;99237.66;;;3.68;77.68
63535;BME280;55128;50.230;18.944;2024-01-27T09:32:26;99247.25;;;3.76;77.94
63535;BME280;55128;50.230;18.944;2024-01-27T09:37:26;99237.47;;;3.88;78.16
63535;BME280;55128;50.230;18.944;2024-01-27T09:42:27;99240.09;;;3.88;78.56
63535;BME280;55128;50.230;18.944;2024-01-27T09:47:28;99230.59;;;3.78;79.98
63535;BME280;55128;50.230;18.944;2024-01-27T09:52:28;99219.16;;;3.85;79.72
63535;BME280;55128;50.230;18.944;2024-01-27T09:57:29;99213.91;;;3.84;80.23
63535;BME280;55128;50.230;18.944;2024-01-27T10:02:30;99228.03;;;3.69;80.64
63535;BME280;55128;50.230;18.944;2024-01-27T10:07:32;99232.34;;;3.79;81.11
63535;BME280;55128;50.230;18.944;2024-01-27T10:12:33;99216.53;;;3.81;80.08
63535;BME280;55128;50.230;18.944;2024-01-27T10:17:38;99222.63;;;3.87;80.79
63535;BME280;55128;50.230;18.944;2024-01-27T10:22:39;99217.28;;;4.00;80.26
63535;BME280;55128;50.230;18.944;2024-01-27T10:27:39;99221.63;;;3.99;80.34
63535;BME280;55128;50.230;18.944;2024-01-27T10:32:40;99225.16;;;3.97;79.48
63535;BME280;55128;50.230;18.944;2024-01-27T10:37:41;99228.47;;;4.17;78.72
63535;BME280;55128;50.230;18.944;2024-01-27T10:42:42;99230.25;;;4.15;78.89
63535;BME280;55128;50.230;18.944;2024-01-27T10:47:44;99226.75;;;4.13;78.26
63535;BME280;55128;50.230;18.944;2024-01-27T10:52:46;99227.56;;;4.18;77.61
63535;BME280;55128;50.230;18.944;2024-01-27T10:57:48;99234.84;;;3.92;78.97
63535;BME280;55128;50.230;18.944;2024-01-27T11:02:51;99230.25;;;4.12;78.13
63535;BME280;55128;50.230;18.944;2024-01-27T11:07:53;99231.16;;;4.11;77.92
63535;BME280;55128;50.230;18.944;2024-01-27T11:12:54;99250.41;;;4.12;78.09
63535;BME280;55128;50.230;18.944;2024-01-27T11:17:57;99248.72;;;4.06;78.73
63535;BME280;55128;50.230;18.944;2024-01-27T11:23:10;99252.19;;;4.11;79.51
63535;BME280;55128;50.230;18.944;2024-01-27T11:28:11;99262.72;;;4.05;79.14
63535;BME280;55128;50.230;18.944;2024-01-27T11:33:15;99275.06;;;3.97;80.39
63535;BME280;55128;50.230;18.944;2024-01-27T11:38:15;99278.41;;;4.13;80.70
63535;BME280;55128;50.230;18.944;2024-01-27T11:43:16;99263.72;;;3.95;80.49
63535;BME280;55128;50.230;18.944;2024-01-27T11:48:16;99258.41;;;3.98;80.26
63535;BME280;55128;50.230;18.944;2024-01-27T11:53:16;99276.00;;;3.93;81.24
63535;BME280;55128;50.230;18.944;2024-01-27T11:58:17;99272.44;;;4.00;81.57
63535;BME280;55128;50.230;18.944;2024-01-27T12:03:17;99283.03;;;3.86;81.76
63535;BME280;55128;50.230;18.944;2024-01-27T12:08:17;99288.22;;;3.94;81.72
63535;BME280;55128;50.230;18.944;2024-01-27T12:13:18;99299.66;;;3.88;82.32
63535;BME280;55128;50.230;18.944;2024-01-27T12:18:18;99308.50;;;3.79;83.21
63535;BME280;55128;50.230;18.944;2024-01-27T12:23:19;99304.06;;;3.84;84.15
63535;BME280;55128;50.230;18.944;2024-01-27T12:28:19;99315.28;;;4.03;83.55
63535;BME280;55128;50.230;18.944;2024-01-27T12:33:20;99312.72;;;3.97;83.61
63535;BME280;55128;50.230;18.944;2024-01-27T12:38:24;99323.16;;;4.05;83.18
63535;BME280;55128;50.230;18.944;2024-01-27T12:43:24;99332.09;;;3.81;84.19
63535;BME280;55128;50.230;18.944;2024-01-27T12:48:25;99328.47;;;3.96;84.69
63535;BME280;55128;50.230;18.944;2024-01-27T12:53:25;99327.72;;;3.81;84.53
63535;BME280;55128;50.230;18.944;2024-01-27T12:58:26;99328.66;;;3.71;85.09
63535;BME280;55128;50.230;18.944;2024-01-27T13:03:26;99340.97;;;3.60;85.45
63535;BME280;55128;50.230;18.944;2024-01-27T13:08:27;99343.69;;;3.46;85.65
63535;BME280;55128;50.230;18.944;2024-01-27T13:13:27;99348.91;;;3.55;86.14
63535;BME280;55128;50.230;18.944;2024-01-27T13:18:28;99346.22;;;3.60;85.65
63535;BME280;55128;50.230;18.944;2024-01-27T13:23:28;99348.91;;;3.55;86.24
63535;BME280;55128;50.230;18.944;2024-01-27T13:28:30;99351.44;;;3.66;85.98
63535;BME280;55128;50.230;18.944;2024-01-27T13:33:31;99363.69;;;3.67;86.11
63535;BME280;55128;50.230;18.944;2024-01-27T13:38:32;99369.72;;;3.83;85.70
63535;BME280;55128;50.230;18.944;2024-01-27T13:43:34;99379.41;;;3.79;85.90
63535;BME280;55128;50.230;18.944;2024-01-27T13:48:35;99374.91;;;3.95;85.41
63535;BME280;55128;50.230;18.944;2024-01-27T13:53:35;99382.72;;;4.06;85.47
63535;BME280;55128;50.230;18.944;2024-01-27T13:58:35;99392.38;;;4.01;85.16
63535;BME280;55128;50.230;18.944;2024-01-27T14:03:36;99397.63;;;4.01;86.03
63535;BME280;55128;50.230;18.944;2024-01-27T14:08:38;99402.06;;;3.93;85.36
63535;BME280;55128;50.230;18.944;2024-01-27T14:13:39;99416.94;;;3.94;86.01
63535;BME280;55128;50.230;18.944;2024-01-27T14:18:39;99424.81;;;3.94;85.67
63535;BME280;55128;50.230;18.944;2024-01-27T14:23:40;99429.16;;;4.01;86.02
63535;BME280;55128;50.230;18.944;2024-01-27T14:28:41;99450.25;;;3.87;86.66
63535;BME280;55128;50.230;18.944;2024-01-27T14:33:41;99448.41;;;4.01;86.65
63535;BME280;55128;50.230;18.944;2024-01-27T14:38:42;99450.16;;;4.05;85.82
63535;BME280;55128;50.230;18.944;2024-01-27T14:43:42;99455.41;;;4.01;86.03
63535;BME280;55128;50.230;18.944;2024-01-27T14:48:43;99465.06;;;3.97;86.03
63535;BME280;55128;50.230;18.944;2024-01-27T14:53:45;99473.66;;;4.24;85.46
63535;BME280;55128;50.230;18.944;2024-01-27T14:58:46;99481.53;;;4.30;84.65
63535;BME280;55128;50.230;18.944;2024-01-27T15:03:51;99484.19;;;4.22;84.88
63535;BME280;55128;50.230;18.944;2024-01-27T15:08:53;99485.94;;;4.26;84.34
63535;BME280;55128;50.230;18.944;2024-01-27T15:13:53;99494.63;;;4.32;84.16
63535;BME280;55128;50.230;18.944;2024-01-27T15:18:54;99511.34;;;4.23;84.17
63535;BME280;55128;50.230;18.944;2024-01-27T15:23:56;99512.22;;;4.26;84.14
63535;BME280;55128;50.230;18.944;2024-01-27T15:28:56;99519.28;;;4.15;83.94
63535;BME280;55128;50.230;18.944;2024-01-27T15:33:56;99534.13;;;4.19;83.79
63535;BME280;55128;50.230;18.944;2024-01-27T15:38:57;99541.13;;;4.25;83.93
63535;BME280;55128;50.230;18.944;2024-01-27T15:43:57;99550.72;;;4.31;83.58
63535;BME280;55128;50.230;18.944;2024-01-27T15:48:58;99551.59;;;4.31;83.33
63535;BME280;55128;50.230;18.944;2024-01-27T15:53:59;99555.94;;;4.40;82.91
63535;BME280;55128;50.230;18.944;2024-01-27T15:58:59;99572.59;;;4.36;83.12
63535;BME280;55128;50.230;18.944;2024-01-27T16:03:59;99598.94;;;4.28;82.95
63535;BME280;55128;50.230;18.944;2024-01-27T16:09:00;99598.00;;;4.38;83.49
63535;BME280;55128;50.230;18.944;2024-01-27T16:14:00;99603.25;;;4.37;83.72
63535;BME280;55128;50.230;18.944;2024-01-27T16:19:00;99620.78;;;4.39;83.20
63535;BME280;55128;50.230;18.944;2024-01-27T16:24:01;99623.38;;;4.42;83.44
63535;BME280;55128;50.230;18.944;2024-01-27T16:29:01;99628.63;;;4.45;82.67
63535;BME280;55128;50.230;18.944;2024-01-27T16:34:03;99642.59;;;4.57;82.65
63535;BME280;55128;50.230;18.944;2024-01-27T16:39:04;99646.94;;;4.64;82.10
63535;BME280;55128;50.230;18.944;2024-01-27T16:44:04;99654.84;;;4.61;82.50
63535;BME280;55128;50.230;18.944;2024-01-27T16:49:05;99663.63;;;4.58;82.05
63535;BME280;55128;50.230;18.944;2024-01-27T16:54:07;99668.81;;;4.71;81.65
63535;BME280;55128;50.230;18.944;2024-01-27T16:59:07;99679.38;;;4.64;81.15
63535;BME280;55128;50.230;18.944;2024-01-27T17:04:08;99680.16;;;4.82;80.50
63535;BME280;55128;50.230;18.944;2024-01-27T17:09:13;99688.09;;;4.74;81.13
63535;BME280;55128;50.230;18.944;2024-01-27T17:14:14;99688.91;;;4.84;80.19
63535;BME280;55128;50.230;18.944;2024-01-27T17:19:14;99710.00;;;4.81;79.67
63535;BME280;55128;50.230;18.944;2024-01-27T17:24:15;99713.53;;;4.74;79.21
63535;BME280;55128;50.230;18.944;2024-01-27T17:29:15;99723.19;;;4.72;77.84
63535;BME280;55128;50.230;18.944;2024-01-27T17:34:17;99726.72;;;4.67;77.98
63535;BME280;55128;50.230;18.944;2024-01-27T17:39:20;99739.88;;;4.67;78.08
63535;BME280;55128;50.230;18.944;2024-01-27T17:44:21;99746.81;;;4.79;77.09
63535;BME280;55128;50.230;18.944;2024-01-27T17:49:22;99752.97;;;4.74;77.39
63535;BME280;55128;50.230;18.944;2024-01-27T17:54:23;99747.63;;;4.94;76.73
63535;BME280;55128;50.230;18.944;2024-01-27T17:59:24;99763.47;;;4.78;76.52
63535;BME280;55128;50.230;18.944;2024-01-27T18:04:24;99773.13;;;4.81;76.07
63535;BME280;55128;50.230;18.944;2024-01-27T18:09:25;99783.72;;;4.62;76.29
63535;BME280;55128;50.230;18.944;2024-01-27T18:14:25;99788.91;;;4.78;76.17
63535;BME280;55128;50.230;18.944;2024-01-27T18:19:25;99793.31;;;4.63;76.04
63535;BME280;55128;50.230;18.944;2024-01-27T18:24:26;99803.84;;;4.71;75.25
63535;BME280;55128;50.230;18.944;2024-01-27T18:29:26;99818.75;;;4.64;75.74
63535;BME280;55128;50.230;18.944;2024-01-27T18:34:28;99821.44;;;4.44;76.30
63535;BME280;55128;50.230;18.944;2024-01-27T18:39:28;99824.97;;;4.33;76.48
63535;BME280;55128;50.230;18.944;2024-01-27T18:44:28;99839.84;;;4.31;76.15
63535;BME280;55128;50.230;18.944;2024-01-27T18:49:29;99848.63;;;4.14;76.73
63535;BME280;55128;50.230;18.944;2024-01-27T18:54:29;99858.25;;;4.03;77.13
63535;BME280;55128;50.230;18.944;2024-01-27T18:59:29;99872.25;;;4.05;77.69
63535;BME280;55128;50.230;18.944;2024-01-27T19:04:30;99869.63;;;3.96;77.26
63535;BME280;55128;50.230;18.944;2024-01-27T19:09:35;99876.63;;;3.81;77.82
63535;BME280;55128;50.230;18.944;2024-01-27T19:14:38;99880.97;;;3.68;77.65
63535;BME280;55128;50.230;18.944;2024-01-27T19:19:39;99888.84;;;3.61;78.58
63535;BME280;55128;50.230;18.944;2024-01-27T19:24:40;99892.34;;;3.57;78.38
63535;BME280;55128;50.230;18.944;2024-01-27T19:29:40;99901.91;;;3.48;78.66
63535;BME280;55128;50.230;18.944;2024-01-27T19:34:41;99907.16;;;3.45;78.78
63535;BME280;55128;50.230;18.944;2024-01-27T19:39:50;99909.75;;;3.39;79.15
63535;BME280;55128;50.230;18.944;2024-01-27T19:44:51;99918.47;;;3.30;79.65
63535;BME280;55128;50.230;18.944;2024-01-27T19:49:51;99928.13;;;3.36;79.59
63535;BME280;55128;50.230;18.944;2024-01-27T19:54:52;99935.16;;;3.42;79.18
63535;BME280;55128;50.230;18.944;2024-01-27T19:59:52;99945.63;;;3.37;79.51
63535;BME280;55128;50.230;18.944;2024-01-27T20:04:52;99954.41;;;3.44;79.41
63535;BME280;55128;50.230;18.944;2024-01-27T20:09:53;99960.53;;;3.44;79.18
63535;BME280;55128;50.230;18.944;2024-01-27T20:14:53;99966.69;;;3.53;79.10
63535;BME280;55128;50.230;18.944;2024-01-27T20:19:53;99973.66;;;3.49;79.28
63535;BME280;55128;50.230;18.944;2024-01-27T20:24:54;99990.31;;;3.49;79.43
63535;BME280;55128;50.230;18.944;2024-01-27T20:29:55;99986.78;;;3.44;79.32
63535;BME280;55128;50.230;18.944;2024-01-27T20:34:55;99991.19;;;3.50;78.81
63535;BME280;55128;50.230;18.944;2024-01-27T20:39:56;99989.31;;;3.27;79.74
63535;BME280;55128;50.230;18.944;2024-01-27T20:44:56;99993.69;;;3.25;79.48
63535;BME280;55128;50.230;18.944;2024-01-27T20:49:56;99995.34;;;3.13;79.88
63535;BME280;55128;50.230;18.944;2024-01-27T20:54:58;100003.19;;;3.06;79.77
63535;BME280;55128;50.230;18.944;2024-01-27T20:59:58;100012.75;;;3.01;80.14
63535;BME280;55128;50.230;18.944;2024-01-27T21:04:58;100017.97;;;3.00;80.02
63535;BME280;55128;50.230;18.944;2024-01-27T21:09:59;100023.22;;;2.98;80.06
63535;BME280;55128;50.230;18.944;2024-01-27T21:15:00;100033.66;;;2.92;80.43
63535;BME280;55128;50.230;18.944;2024-01-27T21:20:00;100032.75;;;2.85;81.06
63535;BME280;55128;50.230;18.944;2024-01-27T21:25:01;100045.09;;;2.99;80.72
63535;BME280;55128;50.230;18.944;2024-01-27T21:30:02;100049.53;;;3.07;80.72
63535;BME280;55128;50.230;18.944;2024-01-27T21:35:03;100044.28;;;3.09;81.40
63535;BME280;55128;50.230;18.944;2024-01-27T21:40:04;100057.56;;;3.29;81.90
63535;BME280;55128;50.230;18.944;2024-01-27T21:45:07;100064.72;;;3.56;81.55
63535;BME280;55128;50.230;18.944;2024-01-27T21:50:08;100069.13;;;3.59;81.57
63535;BME280;55128;50.230;18.944;2024-01-27T21:55:12;100077.91;;;3.62;81.94
63535;BME280;55128;50.230;18.944;2024-01-27T22:00:13;100086.69;;;3.69;81.66
63535;BME280;55128;50.230;18.944;2024-01-27T22:05:13;100084.88;;;3.62;81.83
63535;BME280;55128;50.230;18.944;2024-01-27T22:10:14;100089.28;;;3.66;82.27
63535;BME280;55128;50.230;18.944;2024-01-27T22:15:16;100096.38;;;3.79;82.19
63535;BME280;55128;50.230;18.944;2024-01-27T22:20:17;100087.63;;;3.82;82.18
63535;BME280;55128;50.230;18.944;2024-01-27T22:25:18;100106.06;;;3.96;82.04
63535;BME280;55128;50.230;18.944;2024-01-27T22:30:18;100106.13;;;4.02;82.05
63535;BME280;55128;50.230;18.944;2024-01-27T22:35:18;100113.19;;;4.18;81.84
63535;BME280;55128;50.230;18.944;2024-01-27T22:40:19;100099.22;;;4.32;81.32
63535;BME280;55128;50.230;18.944;2024-01-27T22:45:20;100105.34;;;4.29;81.45
63535;BME280;55128;50.230;18.944;2024-01-27T22:50:21;100108.00;;;4.44;81.08
63535;BME280;55128;50.230;18.944;2024-01-27T22:55:21;100118.56;;;4.52;80.81
63535;BME280;55128;50.230;18.944;2024-01-27T23:00:22;100119.47;;;4.59;80.43
63535;BME280;55128;50.230;18.944;2024-01-27T23:05:34;100124.69;;;4.50;81.09
63535;BME280;55128;50.230;18.944;2024-01-27T23:10:35;100134.38;;;4.58;80.85
63535;BME280;55128;50.230;18.944;2024-01-27T23:15:36;100131.72;;;4.55;80.86
63535;BME280;55128;50.230;18.944;2024-01-27T23:20:36;100128.22;;;4.59;80.90
63535;BME280;55128;50.230;18.944;2024-01-27T23:25:37;100123.00;;;4.64;80.07
63535;BME280;55128;50.230;18.944;2024-01-27T23:30:38;100116.81;;;4.51;81.16
63535;BME280;55128;50.230;18.944;2024-01-27T23:35:39;100112.44;;;4.56;80.56
63535;BME280;55128;50.230;18.944;2024-01-27T23:40:39;100116.84;;;4.60;80.95
63535;BME280;55128;50.230;18.944;2024-01-27T23:45:40;100116.81;;;4.57;80.84
63535;BME280;55128;50.230;18.944;2024-01-27T23:50:40;100134.38;;;4.58;81.26
63535;BME280;55128;50.230;18.944;2024-01-27T23:55:40;100124.75;;;4.68;81.54
